Monticello Municipal Ellis Field
KLLQ : now visible

Airfield :











YOU CAN JOIN US ON...

 
LOGIN :

Register | Disclaimer

   EN    FR    IT 

 









Legend :    VFR   Marginal VFR   IFR   Intensive IFR   Very Intensive IFR
Visi :
Ceiling :
>= 8 km
>= 3000ft
5 to 8 km
1000 to 3000 ft
1500m to 5 km
500 to 1000 ft
800 to 1500m
200 to 500 ft
< 800m
< 200 ft
Symbols :   Thunderstorms  Fog  Heavy snow  Heavy precipitations  Wind > 20 kt







- Airport Elevation : 270 ft


KLLQ - Monticello Municipal Ellis Field

CURRENT METAR :
  • 191153Z AUTO 28004KT 10SM OVC080 10/08 A2980 RMK AO2 SLP088 70138 T01000078 10111 20089 53009

EXPIRED METARs :
  • 191053Z AUTO 29005KT 10SM OVC075 09/07 A2977 RMK AO2 SLP081 T00940072
  • 190953Z AUTO 30004KT 10SM FEW070 09/07 A2977 RMK AO2 SLP079 T00890067

TAF KLLQ
Valid from the 19 at 12:00 until the 20 at 12:00 UTC


191138Z 1912/2012 30010KT P6SM BKN080
FM191600 32010G24KT P6SM BKN050
FM200100 29008KT P6SM SKC
KZME FIR / North America



MET'MAP, your aeronautical weather chart ! - Copyright ORBIFLY December 2007 - Disclaimer

ORBIFLY MET'MAP TEAM :

Programming & Development : Alexandra Zaïnal
Concept & Development : Baudouin d'Aumeries
Co-Development & Prog : Marc-Olivier Méhu
Technical & hardware support : Manuel Goepfert

Contact : metmap@orbifly.com




SOURCES & CREDITS :

   NOAA       Earth
Advisory